CST,Max TemperatureF,Mean TemperatureF,Min TemperatureF,Max Dew PointF,MeanDew PointF,Min DewpointF,Max Humidity, Mean Humidity, Min Humidity, Max Sea Level PressureIn, Mean Sea Level PressureIn, Min Sea Level PressureIn, Max VisibilityMiles, Mean VisibilityMiles, Min VisibilityMiles, Max Wind SpeedMPH, Mean Wind SpeedMPH, Max Gust SpeedMPH,PrecipitationIn, CloudCover, Events, WindDirDegrees
2013-1-1,19,11,3,14,7,-4,93,80,72,30.28,30.20,30.12,10,8,0,13,8,,0.00,2,,309
2013-1-2,32,18,3,25,11,-2,86,77,68,30.31,30.22,30.15,10,10,10,17,10,21,0.00,0,,296
2013-1-3,30,19,8,19,10,1,85,73,60,30.45,30.37,30.32,10,10,10,14,10,,0.00,0,,280
2013-1-4,35,20,6,27,15,0,86,73,63,30.33,30.22,30.10,10,10,5,20,11,,0.00,3,,217
2013-1-5,37,24,12,27,18,7,86,72,60,30.35,30.17,30.04,10,10,10,21,13,26,0.00,1,,293
2013-1-6,44,30,15,28,20,9,80,69,53,30.38,30.30,30.15,10,10,10,18,10,,0.00,0,,237
2013-1-7,48,39,30,30,25,21,80,63,46,30.15,30.03,29.93,10,10,10,25,16,32,0.00,0,,204
2013-1-8,51,40,28,34,25,21,80,66,37,30.19,29.98,29.86,10,10,10,20,11,17,0.00,0,,262
2013-1-9,51,38,26,32,27,19,80,64,41,30.40,30.30,30.19,10,10,10,15,7,16,0.00,1,,15
2013-1-10,41,38,35,36,34,30,93,85,70,30.18,29.89,29.64,10,7,0,18,9,17,0.23,6,,149
2013-1-11,60,43,26,43,27,10,87,57,24,29.86,29.62,29.49,10,10,7,48,18,58,0.00,1,,235
2013-1-12,26,22,17,21,11,7,80,61,46,30.10,30.00,29.86,10,10,10,21,12,25,0.00,3,,16
2013-1-13,26,18,10,9,6,3,73,59,43,30.26,30.19,30.08,10,10,10,15,9,,0.00,1,,23
2013-1-14,28,21,14,12,10,7,73,59,43,30.33,30.26,30.20,10,10,10,15,6,20,0.00,3,,138
2013-1-15,32,23,14,18,12,7,80,66,51,30.22,30.19,30.15,10,10,10,14,7,24,0.00,2,,258
2013-1-16,53,35,17,30,21,9,74,57,35,30.33,30.17,30.08,10,10,10,23,12,28,0.00,2,,315
2013-1-17,53,38,23,28,22,16,80,58,33,30.53,30.43,30.34,10,10,10,15,9,,0.00,0,,267
2013-1-18,60,44,28,30,22,18,74,59,27,30.36,30.20,30.05,10,10,10,26,12,31,0.00,0,,213
2013-1-19,60,42,24,27,19,14,74,49,20,30.26,30.15,30.03,10,10,10,24,10,30,0.00,0,,333
2013-1-20,55,38,21,28,20,12,80,54,26,30.33,30.20,30.11,10,10,10,25,9,33,0.00,0,,267
2013-1-21,46,30,15,27,17,9,80,66,43,30.37,30.26,30.13,10,10,9,17,8,20,0.00,0,,200
2013-1-22,57,38,19,28,20,16,86,58,25,30.21,30.13,30.08,10,10,7,13,7,,0.00,0,,97
2013-1-23,62,42,21,28,19,12,80,51,19,30.23,30.16,30.09,10,10,5,18,6,22,0.00,0,,336
2013-1-24,32,26,21,21,18,14,80,70,60,30.27,30.17,30.05,10,10,8,14,9,20,0.00,3,,85
2013-1-25,55,40,24,27,23,18,80,56,33,30.27,30.18,30.09,10,10,7,16,7,18,0.00,0,,46
2013-1-26,57,42,28,36,27,19,80,58,38,30.17,30.02,29.87,10,10,9,18,10,21,0.00,2,,163
2013-1-27,71,56,37,43,37,27,76,54,29,29.86,29.76,29.70,10,10,10,28,17,37,0.00,0,,196
2013-1-28,69,51,33,39,31,25,75,49,23,29.79,29.72,29.63,10,10,9,36,14,45,0.00,0,,219
2013-1-29,50,38,26,32,27,19,86,70,40,29.79,29.67,29.59,10,9,2,24,16,31,0.00,6,,356
2013-1-30,42,30,19,25,15,10,80,61,29,30.03,29.95,29.82,10,10,7,21,16,30,0.00,0,,292
2013-1-31,46,32,19,27,18,12,74,58,43,30.30,30.12,29.96,10,10,7,24,12,28,0.00,0,,8